createdAt,value
2022-10-17T00:00:20.871Z,101358.22
2022-10-17T00:01:52.498Z,101362.50
2022-10-17T00:03:24.235Z,101366.81
2022-10-17T00:04:55.831Z,101355.22
2022-10-17T00:06:28.830Z,101361.31
2022-10-17T00:08:00.468Z,101354.19
2022-10-17T00:09:32.124Z,101362.09
2022-10-17T00:11:05.887Z,101357.72
2022-10-17T00:12:37.531Z,101354.19
2022-10-17T00:14:09.177Z,101359.44
2022-10-17T00:15:44.404Z,101355.84
2022-10-17T00:17:16.204Z,101353.19
2022-10-17T00:18:47.834Z,101354.19
2022-10-17T00:20:19.678Z,101348.81
2022-10-17T00:21:52.725Z,101354.97
2022-10-17T00:23:26.047Z,101350.53
2022-10-17T00:24:57.668Z,101353.09
2022-10-17T00:26:32.285Z,101349.66
2022-10-17T00:28:04.205Z,101358.50
2022-10-17T00:29:35.812Z,101353.25
2022-10-17T00:31:07.559Z,101355.84
2022-10-17T00:32:39.725Z,101346.94
2022-10-17T00:34:11.395Z,101358.50
2022-10-17T00:35:42.974Z,101347.94
2022-10-17T00:37:16.544Z,101351.53
2022-10-17T00:38:51.878Z,101357.00
2022-10-17T00:40:23.906Z,101358.84
2022-10-17T00:41:55.487Z,101361.50
2022-10-17T00:43:27.883Z,101360.63
2022-10-17T00:45:14.804Z,101349.31
2022-10-17T00:46:47.691Z,101351.97
2022-10-17T00:48:22.646Z,101345.78
2022-10-17T00:49:55.087Z,101353.75
2022-10-17T00:51:32.890Z,101343.22
2022-10-17T00:53:09.356Z,101346.03
2022-10-17T00:54:44.462Z,101344.38
2022-10-17T00:56:17.068Z,101342.66
2022-10-17T00:57:48.990Z,101341.91
2022-10-17T00:59:23.085Z,101338.41
2022-10-17T01:00:54.702Z,101346.38
2022-10-17T01:02:26.766Z,101337.53
2022-10-17T01:03:58.876Z,101341.19
2022-10-17T01:05:30.822Z,101349.22
2022-10-17T01:07:02.527Z,101340.38
2022-10-17T01:08:35.863Z,101336.00
2022-10-17T01:10:09.050Z,101338.75
2022-10-17T01:11:49.841Z,101348.50
2022-10-17T01:13:27.967Z,101352.09
2022-10-17T01:15:11.066Z,101343.28
2022-10-17T01:16:49.057Z,101345.00
2022-10-17T01:18:36.828Z,101344.91
2022-10-17T01:20:41.682Z,101343.13
2022-10-17T01:22:22.297Z,101350.38
2022-10-17T01:24:32.602Z,101355.78
2022-10-17T01:26:19.100Z,101350.53
2022-10-17T01:28:10.241Z,101356.63
2022-10-17T01:30:00.157Z,101355.78
2022-10-17T01:31:38.891Z,101353.97
2022-10-17T01:33:14.861Z,101347.72
2022-10-17T01:34:53.800Z,101349.44
2022-10-17T01:36:36.335Z,101353.91
2022-10-17T01:38:13.048Z,101351.25
2022-10-17T01:39:50.753Z,101352.88
2022-10-17T01:41:32.503Z,101355.47
2022-10-17T01:43:11.657Z,101343.03
2022-10-17T01:44:48.270Z,101339.47
2022-10-17T01:46:25.006Z,101342.97
2022-10-17T01:48:03.140Z,101345.63
2022-10-17T01:49:37.527Z,101339.59
2022-10-17T01:51:13.552Z,101329.84
2022-10-17T01:52:50.548Z,101334.31
2022-10-17T01:54:26.507Z,101327.19
2022-10-17T01:56:01.082Z,101325.41
2022-10-17T01:57:37.914Z,101334.31
2022-10-17T01:59:13.647Z,101333.44
2022-10-17T02:00:46.749Z,101314.94
2022-10-17T02:02:20.578Z,101317.59
2022-10-17T02:03:57.305Z,101319.38
2022-10-17T02:05:33.517Z,101316.63
2022-10-17T02:07:08.455Z,101313.13
2022-10-17T02:08:43.224Z,101311.47
2022-10-17T02:10:25.521Z,101316.78
2022-10-17T02:12:11.651Z,101323.13
2022-10-17T02:14:06.659Z,101318.84
2022-10-17T02:15:54.792Z,101318.84
2022-10-17T02:17:38.724Z,101321.66
2022-10-17T02:19:28.253Z,101315.50
2022-10-17T02:21:06.933Z,101316.44
2022-10-17T02:22:49.217Z,101323.47
2022-10-17T02:24:30.198Z,101320.88
2022-10-17T02:26:10.328Z,101322.75
2022-10-17T02:27:48.760Z,101317.44
2022-10-17T02:29:26.460Z,101325.34
2022-10-17T02:31:02.533Z,101317.38
2022-10-17T02:32:40.114Z,101323.53
2022-10-17T02:34:18.354Z,101323.47
2022-10-17T02:35:54.918Z,101315.41
2022-10-17T02:37:30.198Z,101320.47
2022-10-17T02:39:04.161Z,101315.25
2022-10-17T02:40:37.316Z,101316.13
2022-10-17T02:42:11.908Z,101322.28
2022-10-17T02:43:45.727Z,101318.78
2022-10-17T02:45:17.993Z,101320.56
2022-10-17T02:46:56.642Z,101321.44
2022-10-17T02:48:35.514Z,101321.59
2022-10-17T02:50:09.291Z,101325.09
2022-10-17T02:51:47.412Z,101316.44
2022-10-17T02:53:29.351Z,101320.88
2022-10-17T02:55:06.206Z,101319.16
2022-10-17T02:56:43.560Z,101322.75
2022-10-17T02:58:21.272Z,101321.19
2022-10-17T02:59:54.503Z,101322.03
2022-10-17T03:01:31.754Z,101327.34
2022-10-17T03:03:18.962Z,101330.88
2022-10-17T03:04:50.631Z,101332.66
2022-10-17T03:06:23.602Z,101324.78
2022-10-17T03:07:56.266Z,101324.78
2022-10-17T03:09:29.848Z,101331.81
2022-10-17T03:11:02.547Z,101325.75
2022-10-17T03:12:34.952Z,101326.69
2022-10-17T03:14:06.700Z,101324.97
2022-10-17T03:15:38.310Z,101324.09
2022-10-17T03:17:09.989Z,101320.59
2022-10-17T03:18:44.354Z,101321.44
2022-10-17T03:20:18.268Z,101313.41
2022-10-17T03:21:51.791Z,101316.81
2022-10-17T03:23:23.460Z,101311.50
2022-10-17T03:24:55.307Z,101309.81
2022-10-17T03:26:27.051Z,101319.66
2022-10-17T03:28:00.427Z,101322.38
2022-10-17T03:29:32.221Z,101318.88
2022-10-17T03:31:07.548Z,101318.88
2022-10-17T03:32:39.288Z,101316.22
2022-10-17T03:34:10.978Z,101325.97
2022-10-17T03:35:42.879Z,101324.19
2022-10-17T03:37:16.366Z,101328.56
2022-10-17T03:38:49.134Z,101335.75
2022-10-17T03:40:22.289Z,101338.38
2022-10-17T03:41:53.973Z,101334.00
2022-10-17T03:43:25.642Z,101332.28
2022-10-17T03:44:57.265Z,101337.69
2022-10-17T03:46:29.195Z,101334.16
2022-10-17T03:48:02.521Z,101341.19
2022-10-17T03:49:35.160Z,101340.34
2022-10-17T03:51:08.680Z,101342.91
2022-10-17T03:52:48.441Z,101350.97
2022-10-17T03:54:20.089Z,101345.72
2022-10-17T03:55:51.973Z,101344.88
2022-10-17T03:57:23.748Z,101351.03
2022-10-17T03:58:56.064Z,101345.66
2022-10-17T04:00:27.713Z,101342.84
2022-10-17T04:02:02.964Z,101347.28
2022-10-17T04:03:34.645Z,101349.88
2022-10-17T04:05:08.200Z,101354.25
2022-10-17T04:06:39.961Z,101353.38
2022-10-17T04:08:13.136Z,101355.09
2022-10-17T04:10:03.781Z,101358.63
2022-10-17T04:11:36.049Z,101368.38
2022-10-17T04:13:08.533Z,101357.75
2022-10-17T04:14:40.213Z,101360.25
2022-10-17T04:16:14.668Z,101356.56
2022-10-17T04:17:54.519Z,101363.66
2022-10-17T04:19:26.891Z,101360.16
2022-10-17T04:21:01.499Z,101367.25
2022-10-17T04:22:33.250Z,101364.59
2022-10-17T04:24:06.909Z,101358.38
2022-10-17T04:26:16.847Z,101359.16
2022-10-17T04:27:49.119Z,101364.53
2022-10-17T04:29:21.727Z,101349.38
2022-10-17T04:30:57.269Z,101360.78
2022-10-17T04:32:29.346Z,101346.81
2022-10-17T04:34:14.130Z,101348.59
2022-10-17T04:35:55.448Z,101357.34
2022-10-17T04:37:29.138Z,101350.25
2022-10-17T04:39:03.420Z,101352.03
2022-10-17T04:40:36.729Z,101357.28
2022-10-17T04:42:09.272Z,101351.03
2022-10-17T04:43:43.424Z,101364.31
2022-10-17T04:45:16.252Z,101359.84
2022-10-17T04:46:48.376Z,101357.13
2022-10-17T04:48:20.478Z,101364.16
2022-10-17T04:49:53.571Z,101370.47
2022-10-17T04:51:27.209Z,101357.19
2022-10-17T04:53:14.773Z,101368.59
2022-10-17T04:54:46.467Z,101369.53
2022-10-17T04:56:22.284Z,101373.84
2022-10-17T04:57:54.377Z,101371.19
2022-10-17T04:59:26.451Z,101382.59
2022-10-17T05:01:12.104Z,101374.56
2022-10-17T05:02:45.868Z,101379.69
2022-10-17T05:04:19.940Z,101376.88
2022-10-17T05:05:55.551Z,101380.38
2022-10-17T05:07:27.556Z,101382.03
2022-10-17T05:09:07.777Z,101378.38
2022-10-17T05:10:41.261Z,101384.50
2022-10-17T05:12:14.284Z,101382.69
2022-10-17T05:13:52.764Z,101375.59
2022-10-17T05:15:24.586Z,101384.31
2022-10-17T05:16:58.240Z,101379.94
2022-10-17T05:18:30.251Z,101384.41
2022-10-17T05:20:01.863Z,101379.09
2022-10-17T05:21:37.201Z,101384.41
2022-10-17T05:23:09.688Z,101374.78
2022-10-17T05:24:45.204Z,101378.38
2022-10-17T05:26:17.493Z,101375.72
2022-10-17T05:27:50.753Z,101382.81
2022-10-17T05:29:22.962Z,101377.59
2022-10-17T05:31:03.214Z,101379.31
2022-10-17T05:32:35.910Z,101384.53
2022-10-17T05:34:09.128Z,101396.03
2022-10-17T05:35:43.462Z,101383.69
2022-10-17T05:37:15.165Z,101390.66
2022-10-17T05:38:52.058Z,101393.22
2022-10-17T05:40:23.710Z,101406.34
2022-10-17T05:41:57.684Z,101412.44
2022-10-17T05:43:32.184Z,101420.41
2022-10-17T05:45:04.660Z,101412.50
2022-10-17T05:46:36.980Z,101409.00
2022-10-17T05:48:09.350Z,101400.16
2022-10-17T05:49:48.370Z,101401.03
2022-10-17T05:51:24.757Z,101409.94
2022-10-17T05:52:58.106Z,101410.78
2022-10-17T05:54:29.720Z,101413.44
2022-10-17T05:56:03.298Z,101401.09
2022-10-17T05:57:36.452Z,101411.66
2022-10-17T05:59:12.173Z,101405.56
2022-10-17T06:01:07.085Z,101410.97
2022-10-17T06:02:41.106Z,101416.38
2022-10-17T06:04:14.258Z,101414.63
2022-10-17T06:05:46.061Z,101413.75
2022-10-17T06:07:17.701Z,101413.72
2022-10-17T06:08:49.846Z,101413.63
2022-10-17T06:10:26.602Z,101421.59
2022-10-17T06:11:59.518Z,101420.63
2022-10-17T06:13:31.240Z,101423.13
2022-10-17T06:15:08.381Z,101427.44
2022-10-17T06:16:40.214Z,101434.47
2022-10-17T06:18:12.156Z,101426.50
2022-10-17T06:19:44.840Z,101437.13
2022-10-17T06:21:26.292Z,101437.13
2022-10-17T06:23:05.344Z,101445.97
2022-10-17T06:24:55.382Z,101442.44
2022-10-17T06:26:27.917Z,101445.03
2022-10-17T06:27:59.774Z,101435.41
2022-10-17T06:29:32.230Z,101438.06
2022-10-17T06:31:09.959Z,101434.31
2022-10-17T06:32:41.692Z,101438.56
2022-10-17T06:34:13.536Z,101435.03
2022-10-17T06:35:51.733Z,101435.97
2022-10-17T06:37:23.452Z,101435.91
2022-10-17T06:38:55.135Z,101437.69
2022-10-17T06:40:47.140Z,101446.59
2022-10-17T06:42:18.806Z,101441.38
2022-10-17T06:43:53.964Z,101441.97
2022-10-17T06:45:46.137Z,101453.38
2022-10-17T06:47:25.143Z,101451.66
2022-10-17T06:49:01.060Z,101452.66
2022-10-17T06:50:51.125Z,101460.75
2022-10-17T06:52:31.995Z,101459.03
2022-10-17T06:54:22.361Z,101454.50
2022-10-17T06:56:10.371Z,101458.69
2022-10-17T06:57:58.123Z,101465.72
2022-10-17T06:59:46.960Z,101466.44
2022-10-17T07:01:24.033Z,101457.44
2022-10-17T07:03:01.059Z,101460.63
2022-10-17T07:04:33.011Z,101465.72
2022-10-17T07:06:05.375Z,101471.66
2022-10-17T07:07:40.118Z,101464.47
2022-10-17T07:09:14.965Z,101470.66
2022-10-17T07:10:46.817Z,101470.53
2022-10-17T07:12:18.440Z,101472.19
2022-10-17T07:13:50.312Z,101474.75
2022-10-17T07:15:22.213Z,101470.22
2022-10-17T07:16:54.072Z,101478.13
2022-10-17T07:18:30.141Z,101480.63
2022-10-17T07:20:01.827Z,101474.28
2022-10-17T07:21:38.955Z,101476.69
2022-10-17T07:23:12.359Z,101474.72
2022-10-17T07:24:44.034Z,101480.66
2022-10-17T07:26:23.813Z,101485.22
2022-10-17T07:27:55.929Z,101485.91
2022-10-17T07:29:27.801Z,101485.91
2022-10-17T07:31:24.242Z,101493.78
2022-10-17T07:32:56.029Z,101502.38
2022-10-17T07:34:31.289Z,101499.41
2022-10-17T07:36:05.640Z,101486.88
2022-10-17T07:37:38.169Z,101487.56
2022-10-17T07:39:10.653Z,101481.38
2022-10-17T07:40:43.400Z,101488.28
2022-10-17T07:42:15.362Z,101487.25
2022-10-17T07:43:47.027Z,101490.53
2022-10-17T07:45:20.565Z,101478.84
2022-10-17T07:46:52.307Z,101481.34
2022-10-17T07:48:24.859Z,101479.22
2022-10-17T07:49:58.003Z,101480.66
2022-10-17T07:51:29.645Z,101482.28
2022-10-17T07:53:01.263Z,101483.84
2022-10-17T07:54:32.943Z,101489.88
2022-10-17T07:56:06.591Z,101490.44
2022-10-17T07:57:40.138Z,101505.47
2022-10-17T07:59:11.752Z,101507.72
2022-10-17T08:00:43.535Z,101511.34
2022-10-17T08:02:20.867Z,101513.38
2022-10-17T08:03:52.512Z,101511.22
2022-10-17T08:05:25.556Z,101516.81
2022-10-17T08:07:11.600Z,101512.75
2022-10-17T08:08:49.015Z,101519.47
2022-10-17T08:10:21.329Z,101533.25
2022-10-17T08:11:53.996Z,101539.78
2022-10-17T08:13:25.823Z,101539.91
2022-10-17T08:14:57.455Z,101534.88
2022-10-17T08:16:29.061Z,101543.31
2022-10-17T08:18:00.745Z,101551.31
2022-10-17T08:19:32.658Z,101547.47
2022-10-17T08:21:08.251Z,101547.22
2022-10-17T08:22:40.001Z,101544.38
2022-10-17T08:24:11.645Z,101538.94
2022-10-17T08:25:43.308Z,101528.34
2022-10-17T08:27:15.015Z,101529.56
2022-10-17T08:28:47.494Z,101533.09
2022-10-17T08:30:19.201Z,101543.09
2022-10-17T08:31:54.102Z,101545.03
2022-10-17T08:33:30.240Z,101554.25
2022-10-17T08:35:02.340Z,101548.22
2022-10-17T08:36:35.368Z,101548.88
2022-10-17T08:38:09.055Z,101549.03
2022-10-17T08:39:43.225Z,101559.72
2022-10-17T08:41:27.513Z,101556.09
2022-10-17T08:43:27.117Z,101559.72
2022-10-17T08:45:11.145Z,101567.44
2022-10-17T08:46:47.765Z,101560.00
2022-10-17T08:48:23.251Z,101562.41
2022-10-17T08:49:59.264Z,101567.66
2022-10-17T08:51:33.801Z,101569.28
2022-10-17T08:53:15.880Z,101571.88
2022-10-17T08:54:48.572Z,101578.06
2022-10-17T08:56:44.018Z,101574.16
2022-10-17T08:58:20.008Z,101564.00
2022-10-17T08:59:53.476Z,101568.84
2022-10-17T09:01:33.958Z,101573.00
2022-10-17T09:03:18.684Z,101571.97
2022-10-17T09:05:07.784Z,101576.03
2022-10-17T09:06:45.443Z,101582.81
2022-10-17T09:08:33.437Z,101581.50
2022-10-17T09:10:11.994Z,101584.19
2022-10-17T09:11:56.545Z,101594.97
2022-10-17T09:13:45.884Z,101591.78
2022-10-17T09:15:40.251Z,101592.09
2022-10-17T09:17:23.999Z,101588.91
2022-10-17T09:19:03.497Z,101588.47
2022-10-17T09:20:41.481Z,101595.41
2022-10-17T09:22:18.521Z,101592.56
2022-10-17T09:23:59.703Z,101595.22
2022-10-17T09:25:44.115Z,101597.81
2022-10-17T09:27:22.083Z,101598.66
2022-10-17T09:28:59.109Z,101598.75
2022-10-17T09:30:45.037Z,101602.47
2022-10-17T09:32:22.723Z,101597.13
2022-10-17T09:33:57.283Z,101605.06
2022-10-17T09:35:30.175Z,101606.78
2022-10-17T09:37:02.940Z,101597.72
2022-10-17T09:38:41.368Z,101596.66
2022-10-17T09:40:22.017Z,101604.50
2022-10-17T09:41:55.715Z,101610.47
2022-10-17T09:43:28.108Z,101613.91
2022-10-17T09:45:16.423Z,101612.19
2022-10-17T09:47:15.396Z,101610.28
2022-10-17T09:48:53.334Z,101619.25
2022-10-17T09:50:28.669Z,101621.16
2022-10-17T09:52:01.776Z,101615.06
2022-10-17T09:53:36.569Z,101622.97
2022-10-17T09:55:20.132Z,101623.81
2022-10-17T09:56:59.847Z,101636.47
2022-10-17T09:58:41.605Z,101630.91
2022-10-17T10:00:21.259Z,101629.97
2022-10-17T10:02:07.141Z,101625.19
2022-10-17T10:03:38.804Z,101634.91
2022-10-17T10:05:17.406Z,101634.25
2022-10-17T10:07:02.752Z,101634.44
2022-10-17T10:08:37.811Z,101638.91
2022-10-17T10:10:29.996Z,101643.56
2022-10-17T10:12:05.199Z,101632.91
2022-10-17T10:13:36.921Z,101638.13
2022-10-17T10:15:33.232Z,101639.69
2022-10-17T10:17:06.807Z,101641.41
2022-10-17T10:18:38.457Z,101638.72
2022-10-17T10:20:29.583Z,101638.63
2022-10-17T10:22:03.020Z,101638.38
2022-10-17T10:23:39.880Z,101637.13
2022-10-17T10:25:16.743Z,101644.84
2022-10-17T10:26:50.937Z,101640.38
2022-10-17T10:28:27.177Z,101640.28
2022-10-17T10:29:59.295Z,101649.06
2022-10-17T10:31:36.485Z,101658.69
2022-10-17T10:33:12.170Z,101662.31
2022-10-17T10:34:50.363Z,101661.25
2022-10-17T10:36:23.290Z,101672.59
2022-10-17T10:37:57.369Z,101684.91
2022-10-17T10:39:43.303Z,101683.78
2022-10-17T10:41:14.954Z,101692.66
2022-10-17T10:42:50.524Z,101695.00
2022-10-17T10:44:26.249Z,101696.81
2022-10-17T10:45:58.270Z,101710.31
2022-10-17T10:47:32.947Z,101697.78
2022-10-17T10:49:05.038Z,101700.44
2022-10-17T10:50:45.067Z,101693.19
2022-10-17T10:52:25.099Z,101690.44
2022-10-17T10:54:03.267Z,101708.38
2022-10-17T10:55:40.245Z,101703.88
2022-10-17T10:57:20.774Z,101702.06
2022-10-17T10:58:57.704Z,101696.63
2022-10-17T11:00:34.866Z,101692.72
2022-10-17T11:02:15.795Z,101684.50
2022-10-17T11:03:57.392Z,101678.00
2022-10-17T11:05:41.156Z,101661.75
2022-10-17T11:07:16.959Z,101656.22
2022-10-17T11:08:52.436Z,101642.84
2022-10-17T11:10:35.913Z,101651.63
2022-10-17T11:12:14.739Z,101659.47
2022-10-17T11:13:54.099Z,101662.22
2022-10-17T11:15:35.029Z,101674.56
2022-10-17T11:17:18.098Z,101670.16
2022-10-17T11:18:55.282Z,101675.38
2022-10-17T11:20:34.744Z,101675.38
2022-10-17T11:22:12.627Z,101682.56
2022-10-17T11:23:47.479Z,101678.91
2022-10-17T11:25:32.110Z,101684.47
2022-10-17T11:27:05.996Z,101706.06
2022-10-17T11:28:37.786Z,101700.81
2022-10-17T11:30:13.802Z,101701.88
2022-10-17T11:31:52.417Z,101702.72
2022-10-17T11:33:29.667Z,101712.47
2022-10-17T11:35:06.373Z,101709.50
2022-10-17T11:36:43.598Z,101711.00
2022-10-17T11:38:22.530Z,101714.25
2022-10-17T11:39:58.150Z,101717.50
2022-10-17T11:41:35.346Z,101719.03
2022-10-17T11:43:13.124Z,101712.53
2022-10-17T11:44:44.875Z,101718.63
2022-10-17T11:46:21.424Z,101715.97
2022-10-17T11:48:01.199Z,101723.88
2022-10-17T11:49:40.259Z,101724.56
2022-10-17T11:53:11.811Z,101716.63
2022-10-17T11:54:49.002Z,101723.69
2022-10-17T11:56:32.265Z,101727.22
2022-10-17T11:58:23.063Z,101732.78
2022-10-17T12:00:12.047Z,101727.78
2022-10-17T12:01:49.243Z,101732.50
2022-10-17T12:03:36.226Z,101727.34
2022-10-17T12:05:20.150Z,101739.94
2022-10-17T12:07:09.303Z,101735.84
2022-10-17T12:08:50.572Z,101737.66
2022-10-17T12:10:34.045Z,101742.22
2022-10-17T12:12:05.769Z,101743.22
2022-10-17T12:13:49.301Z,101742.47
2022-10-17T12:15:29.159Z,101741.78
2022-10-17T12:17:01.644Z,101733.75
2022-10-17T12:18:34.800Z,101735.47
2022-10-17T12:20:34.889Z,101736.34
2022-10-17T12:22:21.740Z,101730.13
2022-10-17T12:23:55.121Z,101738.16
2022-10-17T12:25:33.435Z,101733.66
2022-10-17T12:27:39.835Z,101743.59
2022-10-17T12:29:27.236Z,101737.56
2022-10-17T12:31:01.732Z,101743.13
2022-10-17T12:32:46.895Z,101738.84
2022-10-17T12:34:26.860Z,101733.88
2022-10-17T12:36:46.373Z,101735.78
2022-10-17T12:38:26.775Z,101738.56
2022-10-17T12:39:58.404Z,101749.25
2022-10-17T12:41:53.424Z,101751.06
2022-10-17T12:43:46.844Z,101749.34
2022-10-17T12:45:48.526Z,101740.69
2022-10-17T12:47:38.971Z,101743.72
2022-10-17T12:49:22.282Z,101753.63
2022-10-17T12:51:30.654Z,101749.25
2022-10-17T12:53:05.948Z,101753.56
2022-10-17T12:54:47.681Z,101745.44
2022-10-17T12:56:34.158Z,101753.38
2022-10-17T12:58:12.794Z,101759.56
2022-10-17T12:59:45.188Z,101757.00
2022-10-17T13:01:24.495Z,101759.56
2022-10-17T13:03:02.073Z,101758.03
2022-10-17T13:04:36.661Z,101760.44
2022-10-17T13:06:19.526Z,101764.72
2022-10-17T13:07:53.123Z,101764.50
2022-10-17T13:09:28.948Z,101767.78
2022-10-17T13:11:02.215Z,101767.41
2022-10-17T13:12:41.226Z,101774.34
2022-10-17T13:14:15.215Z,101776.81
2022-10-17T13:15:47.970Z,101783.91
2022-10-17T13:17:25.801Z,101785.44
2022-10-17T13:18:57.504Z,101788.00
2022-10-17T13:20:31.881Z,101781.72
2022-10-17T13:22:19.453Z,101787.25
2022-10-17T13:23:53.057Z,101791.63
2022-10-17T13:25:26.997Z,101793.34
2022-10-17T13:26:59.264Z,101795.06
2022-10-17T13:28:32.413Z,101793.34
2022-10-17T13:30:24.771Z,101791.63
2022-10-17T13:32:01.402Z,101798.72
2022-10-17T13:33:35.803Z,101796.03
2022-10-17T13:35:10.709Z,101795.94
2022-10-17T13:36:48.528Z,101790.50
2022-10-17T13:38:25.980Z,101798.31
2022-10-17T13:40:02.926Z,101798.13
2022-10-17T13:41:39.714Z,101803.28
2022-10-17T13:43:16.325Z,101803.09
2022-10-17T13:44:48.253Z,101804.63
2022-10-17T13:46:37.545Z,101803.63
2022-10-17T13:48:19.965Z,101804.63
2022-10-17T13:49:55.239Z,101808.03
2022-10-17T13:51:27.837Z,101804.34
2022-10-17T13:53:07.896Z,101805.88
2022-10-17T13:54:42.457Z,101812.66
2022-10-17T13:56:29.679Z,101809.66
2022-10-17T13:58:16.241Z,101811.28
2022-10-17T13:59:50.409Z,101817.31
2022-10-17T14:01:22.739Z,101823.19
2022-10-17T14:02:54.460Z,101813.34
2022-10-17T14:04:26.272Z,101820.44
2022-10-17T14:06:14.046Z,101820.66
2022-10-17T14:08:10.483Z,101816.69
2022-10-17T14:09:46.652Z,101815.84
2022-10-17T14:11:29.079Z,101814.69
2022-10-17T14:13:01.728Z,101822.44
2022-10-17T14:14:51.652Z,101819.84
2022-10-17T14:16:33.972Z,101828.06
2022-10-17T14:18:08.422Z,101821.84
2022-10-17T14:19:40.292Z,101824.53
2022-10-17T14:21:37.144Z,101828.34
2022-10-17T14:23:29.444Z,101822.16
2022-10-17T14:25:03.692Z,101827.50
2022-10-17T14:26:47.048Z,101831.91
2022-10-17T14:28:22.591Z,101838.88
2022-10-17T14:30:00.580Z,101829.97
2022-10-17T14:31:34.030Z,101835.25
2022-10-17T14:33:08.511Z,101844.03
2022-10-17T14:34:40.830Z,101844.91
2022-10-17T14:36:13.542Z,101844.03
2022-10-17T14:37:47.723Z,101851.09
2022-10-17T14:39:22.628Z,101862.88
2022-10-17T14:41:20.932Z,101855.78
2022-10-17T14:42:55.101Z,101859.22
2022-10-17T14:44:30.301Z,101869.75
2022-10-17T14:46:02.643Z,101871.47
2022-10-17T14:47:50.247Z,101871.47
2022-10-17T14:49:28.427Z,101866.03
2022-10-17T14:51:08.412Z,101878.63
2022-10-17T14:52:40.772Z,101877.28
2022-10-17T14:54:24.523Z,101880.94
2022-10-17T14:55:59.294Z,101869.56
2022-10-17T14:57:44.147Z,101875.13
2022-10-17T14:59:30.178Z,101881.91
2022-10-17T15:01:09.513Z,101884.13
2022-10-17T15:02:41.450Z,101884.13
2022-10-17T15:04:13.084Z,101888.28
2022-10-17T15:05:44.752Z,101882.28
2022-10-17T15:07:17.610Z,101897.06
2022-10-17T15:08:49.331Z,101896.50
2022-10-17T15:10:30.662Z,101895.94
2022-10-17T15:12:06.949Z,101897.84
2022-10-17T15:13:43.290Z,101897.91
2022-10-17T15:15:17.122Z,101894.47
2022-10-17T15:16:48.775Z,101884.28
2022-10-17T15:18:20.428Z,101882.53
2022-10-17T15:19:52.170Z,101881.94
2022-10-17T15:21:37.587Z,101879.25
2022-10-17T15:23:12.398Z,101892.34
2022-10-17T15:24:46.102Z,101900.09
2022-10-17T15:26:20.074Z,101901.78
2022-10-17T15:27:53.708Z,101892.75
2022-10-17T15:29:25.719Z,101884.91
2022-10-17T15:30:57.377Z,101896.75
2022-10-17T15:32:29.031Z,101907.53
2022-10-17T15:34:00.718Z,101922.19
2022-10-17T15:35:32.430Z,101921.41
2022-10-17T15:37:06.200Z,101931.38
2022-10-17T15:38:37.892Z,101935.66
2022-10-17T15:40:14.558Z,101941.84
2022-10-17T15:41:47.978Z,101950.50
2022-10-17T15:43:21.039Z,101942.75
2022-10-17T15:44:52.789Z,101948.00
2022-10-17T15:46:26.850Z,101943.63
2022-10-17T15:48:04.182Z,101951.53
2022-10-17T15:49:35.836Z,101945.16
2022-10-17T15:51:07.971Z,101946.97
2022-10-17T15:52:39.624Z,101944.56
2022-10-17T15:55:50.878Z,101949.03
2022-10-17T15:57:26.200Z,101955.16
2022-10-17T15:59:02.158Z,101958.03
2022-10-17T16:00:33.827Z,101962.41
2022-10-17T16:02:12.579Z,101965.19
2022-10-17T16:03:47.279Z,101967.31
2022-10-17T16:05:25.482Z,101970.00
2022-10-17T16:06:58.511Z,101977.06
2022-10-17T16:08:30.186Z,101970.75
2022-10-17T16:10:01.832Z,101976.19
2022-10-17T16:11:36.213Z,101973.59
2022-10-17T16:13:15.164Z,101976.34
2022-10-17T16:14:48.213Z,101979.13
2022-10-17T16:16:22.117Z,101985.25
2022-10-17T16:17:56.924Z,101986.19
2022-10-17T16:19:29.944Z,102002.38
2022-10-17T16:21:01.712Z,102002.59
2022-10-17T16:22:36.620Z,102002.06
2022-10-17T16:24:10.315Z,101998.75
2022-10-17T16:25:42.166Z,101996.47
2022-10-17T16:27:13.905Z,102003.06
2022-10-17T16:28:46.263Z,102003.28
2022-10-17T16:31:57.005Z,102007.91
2022-10-17T16:33:28.764Z,102002.72
2022-10-17T16:35:00.536Z,102001.00
2022-10-17T16:36:32.758Z,102001.78
2022-10-17T16:38:04.663Z,101991.97
2022-10-17T16:39:36.337Z,101991.13
2022-10-17T16:41:18.897Z,101990.34
2022-10-17T16:42:50.944Z,101985.16
2022-10-17T16:44:22.687Z,101975.63
2022-10-17T16:45:55.702Z,101973.19
2022-10-17T16:47:27.327Z,101981.44
2022-10-17T16:48:59.567Z,101970.34
2022-10-17T16:50:35.293Z,101977.47
2022-10-17T16:52:07.003Z,101982.13
2022-10-17T16:53:44.831Z,101987.16
2022-10-17T16:55:18.905Z,102005.97
2022-10-17T16:56:50.618Z,102026.38
2022-10-17T16:58:24.292Z,102032.50
2022-10-17T16:59:56.006Z,102041.19
2022-10-17T17:01:32.041Z,102041.19
2022-10-17T17:03:04.443Z,102047.38
2022-10-17T17:04:36.240Z,102051.84
2022-10-17T17:06:09.387Z,102051.97
2022-10-17T17:07:41.419Z,102059.19
2022-10-17T17:09:13.540Z,102060.13
2022-10-17T17:10:45.834Z,102052.34
2022-10-17T17:12:17.501Z,102054.22
2022-10-17T17:13:49.764Z,102049.06
2022-10-17T17:15:21.461Z,102042.84
2022-10-17T17:16:54.519Z,102041.91
2022-10-17T17:18:26.193Z,102042.78
2022-10-17T17:19:57.859Z,102040.97
2022-10-17T17:21:29.580Z,102043.56
2022-10-17T17:23:01.281Z,102045.28
2022-10-17T17:24:32.979Z,102046.16
2022-10-17T17:26:06.815Z,102044.44
2022-10-17T17:27:38.497Z,102044.50
2022-10-17T17:29:12.141Z,102041.91
2022-10-17T17:30:43.779Z,102050.09
2022-10-17T17:32:16.868Z,102056.53
2022-10-17T17:33:49.356Z,102051.56
2022-10-17T17:35:21.908Z,102053.63
2022-10-17T17:36:53.621Z,102058.97
2022-10-17T17:38:25.515Z,102059.84
2022-10-17T17:39:57.158Z,102057.09
2022-10-17T17:41:29.214Z,102068.63
2022-10-17T17:44:37.588Z,102056.16
2022-10-17T17:46:10.101Z,102059.66
2022-10-17T17:47:43.124Z,102053.56
2022-10-17T17:49:14.889Z,102059.91
2022-10-17T17:50:46.990Z,102063.66
2022-10-17T17:52:18.683Z,102061.94
2022-10-17T17:53:52.399Z,102060.53
2022-10-17T17:55:24.313Z,102058.25
2022-10-17T17:56:56.009Z,102065.53
2022-10-17T17:58:30.604Z,102067.59
2022-10-17T18:00:07.574Z,102074.06
2022-10-17T18:01:39.679Z,102079.47
2022-10-17T18:03:12.969Z,102068.88
2022-10-17T18:04:44.657Z,102069.81
2022-10-17T18:06:17.056Z,102075.94
2022-10-17T18:07:48.862Z,102077.69
2022-10-17T18:09:21.365Z,102075.00
2022-10-17T18:10:56.342Z,102073.13
2022-10-17T18:12:29.041Z,102079.31
2022-10-17T18:14:02.668Z,102075.81
2022-10-17T18:15:34.366Z,102066.00
2022-10-17T18:17:06.129Z,102071.19
2022-10-17T18:18:40.384Z,102077.31
2022-10-17T18:20:12.409Z,102076.38
2022-10-17T18:21:44.355Z,102076.25
2022-10-17T18:23:17.701Z,102085.22
2022-10-17T18:24:49.718Z,102081.91
2022-10-17T18:26:21.446Z,102089.13
2022-10-17T18:27:53.062Z,102085.66